Aviation Digital Data Service (ADDS)

Output produced by METARs form (0803 UTC 18 September 2021)
found at http://www.aviationweather.gov/metar/data/
 
METAR text: UTDD 180730Z VRB01MPS 9999 NSC 34/03 Q1011 R09/D NOSIG RMK QFE690/0921
Conditions at: UTDD (DUSHANBE , TJ) observed 0730 UTC 18 September 2021
Temperature: 34.0°C (93°F)
Dewpoint: 3.0°C (37°F) [RH = 14%]
Pressure (altimeter): 29.85 inches Hg (1011.0 mb)
Winds: variable direction winds at 2 MPH (2 knots; 1.0 m/s)
Visibility: 6 or more miles (10+ km)
Ceiling: at least 12,000 feet AGL
Clouds: sky clear below 12,000 feet AGL
Weather: no significant weather observed at this time

METAR text: UTDD 180700Z VRB02MPS 9999 NSC 33/04 Q1012 R09/D NOSIG RMK QFE691/0921
Conditions at: UTDD (DUSHANBE , TJ) observed 0700 UTC 18 September 2021
Temperature: 33.0°C (91°F)
Dewpoint: 4.0°C (39°F) [RH = 16%]
Pressure (altimeter): 29.88 inches Hg (1012.0 mb)
Winds: variable direction winds at 5 MPH (4 knots; 2.1 m/s)
Visibility: 6 or more miles (10+ km)
Ceiling: at least 12,000 feet AGL
Clouds: sky clear below 12,000 feet AGL
Weather: no significant weather observed at this time

METAR text: UTDD 180630Z VRB02MPS 8000 NSC 32/06 Q1012 R09/D NOSIG RMK QFE691/0922
Conditions at: UTDD (DUSHANBE , TJ) observed 0630 UTC 18 September 2021
Temperature: 32.0°C (90°F)
Dewpoint: 6.0°C (43°F) [RH = 20%]
Pressure (altimeter): 29.88 inches Hg (1012.0 mb)
Winds: variable direction winds at 5 MPH (4 knots; 2.1 m/s)
Visibility: 5 miles ( 8 km)
Ceiling: at least 12,000 feet AGL
Clouds: sky clear below 12,000 feet AGL
Weather: no significant weather observed at this time

METAR text: UTDD 180600Z VRB02MPS 7000 NSC 30/07 Q1013 R09/CLRD// NOSIG RMK QFE691/0922
Conditions at: UTDD (DUSHANBE , TJ) observed 0600 UTC 18 September 2021
Temperature: 30.0°C (86°F)
Dewpoint: 7.0°C (45°F) [RH = 24%]
Pressure (altimeter): 29.91 inches Hg (1013.0 mb)
Winds: variable direction winds at 5 MPH (4 knots; 2.1 m/s)
Visibility: 4 miles ( 7 km)
Ceiling: at least 12,000 feet AGL
Clouds: sky clear below 12,000 feet AGL
Weather: no significant weather observed at this time

METAR text: UTDD 180530Z VRB02MPS 7000 NSC 30/06 Q1013 R09/D NOSIG RMK QFE692/0922
Conditions at: UTDD (DUSHANBE , TJ) observed 0530 UTC 18 September 2021
Temperature: 30.0°C (86°F)
Dewpoint: 6.0°C (43°F) [RH = 22%]
Pressure (altimeter): 29.91 inches Hg (1013.0 mb)
Winds: variable direction winds at 5 MPH (4 knots; 2.1 m/s)
Visibility: 4 miles ( 7 km)
Ceiling: at least 12,000 feet AGL
Clouds: sky clear below 12,000 feet AGL
Weather: no significant weather observed at this time

METAR text: UTDD 180500Z VRB01MPS 8000 NSC 29/07 Q1013 R09/D NOSIG RMK QFE692/0922
Conditions at: UTDD (DUSHANBE , TJ) observed 0500 UTC 18 September 2021
Temperature: 29.0°C (84°F)
Dewpoint: 7.0°C (45°F) [RH = 25%]
Pressure (altimeter): 29.91 inches Hg (1013.0 mb)
Winds: variable direction winds at 2 MPH (2 knots; 1.0 m/s)
Visibility: 5 miles ( 8 km)
Ceiling: at least 12,000 feet AGL
Clouds: sky clear below 12,000 feet AGL
Weather: no significant weather observed at this time

METAR text: UTDD 180430Z VRB02MPS 8000 NSC 26/05 Q1013 R09/D NOSIG RMK QFE692/0922
Conditions at: UTDD (DUSHANBE , TJ) observed 0430 UTC 18 September 2021
Temperature: 26.0°C (79°F)
Dewpoint: 5.0°C (41°F) [RH = 26%]
Pressure (altimeter): 29.91 inches Hg (1013.0 mb)
Winds: variable direction winds at 5 MPH (4 knots; 2.1 m/s)
Visibility: 5 miles ( 8 km)
Ceiling: at least 12,000 feet AGL
Clouds: sky clear below 12,000 feet AGL
Weather: no significant weather observed at this time

METAR text: UTDD 180400Z VRB02MPS 6000 NSC 25/08 Q1013 R09/D NOSIG RMK QFE692/0922
Conditions at: UTDD (DUSHANBE , TJ) observed 0400 UTC 18 September 2021
Temperature: 25.0°C (77°F)
Dewpoint: 8.0°C (46°F) [RH = 34%]
Pressure (altimeter): 29.91 inches Hg (1013.0 mb)
Winds: variable direction winds at 5 MPH (4 knots; 2.1 m/s)
Visibility: 4 miles ( 6 km)
Ceiling: at least 12,000 feet AGL
Clouds: sky clear below 12,000 feet AGL
Weather: no significant weather observed at this time

METAR text: UTDD 180330Z VRB02MPS 6000 NSC 24/03 Q1013 R09/D NOSIG RMK QFE691/0922
Conditions at: UTDD (DUSHANBE , TJ) observed 0330 UTC 18 September 2021
Temperature: 24.0°C (75°F)
Dewpoint: 3.0°C (37°F) [RH = 25%]
Pressure (altimeter): 29.91 inches Hg (1013.0 mb)
Winds: variable direction winds at 5 MPH (4 knots; 2.1 m/s)
Visibility: 4 miles ( 6 km)
Ceiling: at least 12,000 feet AGL
Clouds: sky clear below 12,000 feet AGL
Weather: no significant weather observed at this time

METAR text: UTDD 180300Z 10002MPS 8000 NSC 21/04 Q1013 R09/D NOSIG RMK QFE691/0922
Conditions at: UTDD (DUSHANBE , TJ) observed 0300 UTC 18 September 2021
Temperature: 21.0°C (70°F)
Dewpoint: 4.0°C (39°F) [RH = 33%]
Pressure (altimeter): 29.91 inches Hg (1013.0 mb)
Winds: from the E (100 degrees) at 5 MPH (4 knots; 2.1 m/s)
Visibility: 5 miles ( 8 km)
Ceiling: at least 12,000 feet AGL
Clouds: sky clear below 12,000 feet AGL
Weather: no significant weather observed at this time

METAR text: UTDD 180230Z VRB01MPS 8000 NSC 19/05 Q1012 R09/D NOSIG RMK QFE691/0922
Conditions at: UTDD (DUSHANBE , TJ) observed 0230 UTC 18 September 2021
Temperature: 19.0°C (66°F)
Dewpoint: 5.0°C (41°F) [RH = 40%]
Pressure (altimeter): 29.88 inches Hg (1012.0 mb)
Winds: variable direction winds at 2 MPH (2 knots; 1.0 m/s)
Visibility: 5 miles ( 8 km)
Ceiling: at least 12,000 feet AGL
Clouds: sky clear below 12,000 feet AGL
Weather: no significant weather observed at this time

METAR text: UTDD 180200Z 00000MPS 9000 NSC 18/06 Q1012 R09/D NOSIG RMK QFE691/0922
Conditions at: UTDD (DUSHANBE , TJ) observed 0200 UTC 18 September 2021
Temperature: 18.0°C (64°F)
Dewpoint: 6.0°C (43°F) [RH = 45%]
Pressure (altimeter): 29.88 inches Hg (1012.0 mb)
Winds: calm
Visibility: 6 miles ( 9 km)
Ceiling: at least 12,000 feet AGL
Clouds: sky clear below 12,000 feet AGL
Weather: no significant weather observed at this time

METAR text: UTDD 180130Z 00000MPS 9999 NSC 16/04 Q1012 R09/D NOSIG RMK QFE691/0921
Conditions at: UTDD (DUSHANBE , TJ) observed 0130 UTC 18 September 2021
Temperature: 16.0°C (61°F)
Dewpoint: 4.0°C (39°F) [RH = 45%]
Pressure (altimeter): 29.88 inches Hg (1012.0 mb)
Winds: calm
Visibility: 6 or more miles (10+ km)
Ceiling: at least 12,000 feet AGL
Clouds: sky clear below 12,000 feet AGL
Weather: no significant weather observed at this time

METAR text: UTDD 180100Z VRB01MPS 9000 NSC 17/04 Q1012 R09/D NOSIG RMK QFE691/0921
Conditions at: UTDD (DUSHANBE , TJ) observed 0100 UTC 18 September 2021
Temperature: 17.0°C (63°F)
Dewpoint: 4.0°C (39°F) [RH = 42%]
Pressure (altimeter): 29.88 inches Hg (1012.0 mb)
Winds: variable direction winds at 2 MPH (2 knots; 1.0 m/s)
Visibility: 6 miles ( 9 km)
Ceiling: at least 12,000 feet AGL
Clouds: sky clear below 12,000 feet AGL
Weather: no significant weather observed at this time

METAR text: UTDD 180030Z VRB02MPS 9999 NSC 18/04 Q1011 R09/D NOSIG RMK QFE691/0921
Conditions at: UTDD (DUSHANBE , TJ) observed 0030 UTC 18 September 2021
Temperature: 18.0°C (64°F)
Dewpoint: 4.0°C (39°F) [RH = 39%]
Pressure (altimeter): 29.85 inches Hg (1011.0 mb)
Winds: variable direction winds at 5 MPH (4 knots; 2.1 m/s)
Visibility: 6 or more miles (10+ km)
Ceiling: at least 12,000 feet AGL
Clouds: sky clear below 12,000 feet AGL
Weather: no significant weather observed at this time

METAR text: UTDD 180000Z VRB01MPS 9999 NSC 18/05 Q1011 R09/D NOSIG RMK QFE690/0920
Conditions at: UTDD (DUSHANBE , TJ) observed 0000 UTC 18 September 2021
Temperature: 18.0°C (64°F)
Dewpoint: 5.0°C (41°F) [RH = 42%]
Pressure (altimeter): 29.85 inches Hg (1011.0 mb)
Winds: variable direction winds at 2 MPH (2 knots; 1.0 m/s)
Visibility: 6 or more miles (10+ km)
Ceiling: at least 12,000 feet AGL
Clouds: sky clear below 12,000 feet AGL
Weather: no significant weather observed at this time

METAR text: UTDD 172330Z VRB01MPS 9999 NSC 17/04 Q1011 R09/D NOSIG RMK QFE690/0920
Conditions at: UTDD (DUSHANBE , TJ) observed 2330 UTC 17 September 2021
Temperature: 17.0°C (63°F)
Dewpoint: 4.0°C (39°F) [RH = 42%]
Pressure (altimeter): 29.85 inches Hg (1011.0 mb)
Winds: variable direction winds at 2 MPH (2 knots; 1.0 m/s)
Visibility: 6 or more miles (10+ km)
Ceiling: at least 12,000 feet AGL
Clouds: sky clear below 12,000 feet AGL
Weather: no significant weather observed at this time

METAR text: UTDD 172300Z VRB01MPS 9999 NSC 18/05 Q1011 R09/D NOSIG RMK QFE690/0920
Conditions at: UTDD (DUSHANBE , TJ) observed 2300 UTC 17 September 2021
Temperature: 18.0°C (64°F)
Dewpoint: 5.0°C (41°F) [RH = 42%]
Pressure (altimeter): 29.85 inches Hg (1011.0 mb)
Winds: variable direction winds at 2 MPH (2 knots; 1.0 m/s)
Visibility: 6 or more miles (10+ km)
Ceiling: at least 12,000 feet AGL
Clouds: sky clear below 12,000 feet AGL
Weather: no significant weather observed at this time

METAR text: UTDD 172230Z 00000MPS 9999 NSC 19/04 Q1011 R09/D NOSIG RMK QFE690/0920
Conditions at: UTDD (DUSHANBE , TJ) observed 2230 UTC 17 September 2021
Temperature: 19.0°C (66°F)
Dewpoint: 4.0°C (39°F) [RH = 37%]
Pressure (altimeter): 29.85 inches Hg (1011.0 mb)
Winds: calm
Visibility: 6 or more miles (10+ km)
Ceiling: at least 12,000 feet AGL
Clouds: sky clear below 12,000 feet AGL
Weather: no significant weather observed at this time

METAR text: UTDD 172200Z 09002MPS 9999 NSC 19/04 Q1010 R09/D NOSIG RMK QFE690/0920
Conditions at: UTDD (DUSHANBE , TJ) observed 2200 UTC 17 September 2021
Temperature: 19.0°C (66°F)
Dewpoint: 4.0°C (39°F) [RH = 37%]
Pressure (altimeter): 29.82 inches Hg (1010.0 mb)
Winds: from the E (90 degrees) at 5 MPH (4 knots; 2.1 m/s)
Visibility: 6 or more miles (10+ km)
Ceiling: at least 12,000 feet AGL
Clouds: sky clear below 12,000 feet AGL
Weather: no significant weather observed at this time

METAR text: UTDD 172130Z 09002MPS 9999 NSC 18/04 Q1010 R09/D NOSIG RMK QFE690/0920
Conditions at: UTDD (DUSHANBE , TJ) observed 2130 UTC 17 September 2021
Temperature: 18.0°C (64°F)
Dewpoint: 4.0°C (39°F) [RH = 39%]
Pressure (altimeter): 29.82 inches Hg (1010.0 mb)
Winds: from the E (90 degrees) at 5 MPH (4 knots; 2.1 m/s)
Visibility: 6 or more miles (10+ km)
Ceiling: at least 12,000 feet AGL
Clouds: sky clear below 12,000 feet AGL
Weather: no significant weather observed at this time

METAR text: UTDD 172100Z VRB01MPS 9999 NSC 19/04 Q1010 R09/D NOSIG RMK QFE690/0920
Conditions at: UTDD (DUSHANBE , TJ) observed 2100 UTC 17 September 2021
Temperature: 19.0°C (66°F)
Dewpoint: 4.0°C (39°F) [RH = 37%]
Pressure (altimeter): 29.82 inches Hg (1010.0 mb)
Winds: variable direction winds at 2 MPH (2 knots; 1.0 m/s)
Visibility: 6 or more miles (10+ km)
Ceiling: at least 12,000 feet AGL
Clouds: sky clear below 12,000 feet AGL
Weather: no significant weather observed at this time

METAR text: UTDD 172030Z VRB01MPS 9999 NSC 20/05 Q1010 R09/D NOSIG RMK QFE690/0920
Conditions at: UTDD (DUSHANBE , TJ) observed 2030 UTC 17 September 2021
Temperature: 20.0°C (68°F)
Dewpoint: 5.0°C (41°F) [RH = 37%]
Pressure (altimeter): 29.82 inches Hg (1010.0 mb)
Winds: variable direction winds at 2 MPH (2 knots; 1.0 m/s)
Visibility: 6 or more miles (10+ km)
Ceiling: at least 12,000 feet AGL
Clouds: sky clear below 12,000 feet AGL
Weather: no significant weather observed at this time

METAR text: UTDD 172000Z VRB01MPS 9999 NSC 20/04 Q1010 R09/D NOSIG RMK QFE689/0919
Conditions at: UTDD (DUSHANBE , TJ) observed 2000 UTC 17 September 2021
Temperature: 20.0°C (68°F)
Dewpoint: 4.0°C (39°F) [RH = 35%]
Pressure (altimeter): 29.82 inches Hg (1010.0 mb)
Winds: variable direction winds at 2 MPH (2 knots; 1.0 m/s)
Visibility: 6 or more miles (10+ km)
Ceiling: at least 12,000 feet AGL
Clouds: sky clear below 12,000 feet AGL
Weather: no significant weather observed at this time

METAR text: UTDD 171930Z 09002MPS 9999 NSC 20/05 Q1010 R09/D NOSIG RMK QFE689/0919
Conditions at: UTDD (DUSHANBE , TJ) observed 1930 UTC 17 September 2021
Temperature: 20.0°C (68°F)
Dewpoint: 5.0°C (41°F) [RH = 37%]
Pressure (altimeter): 29.82 inches Hg (1010.0 mb)
Winds: from the E (90 degrees) at 5 MPH (4 knots; 2.1 m/s)
Visibility: 6 or more miles (10+ km)
Ceiling: at least 12,000 feet AGL
Clouds: sky clear below 12,000 feet AGL
Weather: no significant weather observed at this time

METAR text: UTDD 171900Z 10003MPS 9999 NSC 20/06 Q1010 R09/D NOSIG RMK QFE689/0919
Conditions at: UTDD (DUSHANBE , TJ) observed 1900 UTC 17 September 2021
Temperature: 20.0°C (68°F)
Dewpoint: 6.0°C (43°F) [RH = 40%]
Pressure (altimeter): 29.82 inches Hg (1010.0 mb)
Winds: from the E (100 degrees) at 7 MPH (6 knots; 3.1 m/s)
Visibility: 6 or more miles (10+ km)
Ceiling: at least 12,000 feet AGL
Clouds: sky clear below 12,000 feet AGL
Weather: no significant weather observed at this time

METAR text: UTDD 171830Z 10003MPS 9999 NSC 20/06 Q1010 R09/D NOSIG RMK QFE689/0919
Conditions at: UTDD (DUSHANBE , TJ) observed 1830 UTC 17 September 2021
Temperature: 20.0°C (68°F)
Dewpoint: 6.0°C (43°F) [RH = 40%]
Pressure (altimeter): 29.82 inches Hg (1010.0 mb)
Winds: from the E (100 degrees) at 7 MPH (6 knots; 3.1 m/s)
Visibility: 6 or more miles (10+ km)
Ceiling: at least 12,000 feet AGL
Clouds: sky clear below 12,000 feet AGL
Weather: no significant weather observed at this time

METAR text: UTDD 171800Z 11002MPS 8000 NSC 21/06 Q1009 R09/D NOSIG RMK QFE689/0919
Conditions at: UTDD (DUSHANBE , TJ) observed 1800 UTC 17 September 2021
Temperature: 21.0°C (70°F)
Dewpoint: 6.0°C (43°F) [RH = 38%]
Pressure (altimeter): 29.79 inches Hg (1009.0 mb)
Winds: from the ESE (110 degrees) at 5 MPH (4 knots; 2.1 m/s)
Visibility: 5 miles ( 8 km)
Ceiling: at least 12,000 feet AGL
Clouds: sky clear below 12,000 feet AGL
Weather: no significant weather observed at this time

METAR text: UTDD 171730Z VRB01MPS 9000 NSC 22/06 Q1009 R09/CLRD// NOSIG RMK QFE689/0919
Conditions at: UTDD (DUSHANBE , TJ) observed 1730 UTC 17 September 2021
Temperature: 22.0°C (72°F)
Dewpoint: 6.0°C (43°F) [RH = 35%]
Pressure (altimeter): 29.79 inches Hg (1009.0 mb)
Winds: variable direction winds at 2 MPH (2 knots; 1.0 m/s)
Visibility: 6 miles ( 9 km)
Ceiling: at least 12,000 feet AGL
Clouds: sky clear below 12,000 feet AGL
Weather: no significant weather observed at this time

METAR text: UTDD 171700Z 10002MPS 8000 NSC 22/05 Q1009 R09/D NOSIG RMK QFE689/0919
Conditions at: UTDD (DUSHANBE , TJ) observed 1700 UTC 17 September 2021
Temperature: 22.0°C (72°F)
Dewpoint: 5.0°C (41°F) [RH = 33%]
Pressure (altimeter): 29.79 inches Hg (1009.0 mb)
Winds: from the E (100 degrees) at 5 MPH (4 knots; 2.1 m/s)
Visibility: 5 miles ( 8 km)
Ceiling: at least 12,000 feet AGL
Clouds: sky clear below 12,000 feet AGL
Weather: no significant weather observed at this time

METAR text: UTDD 171630Z VRB01MPS 8000 NSC 23/05 Q1009 R09/D NOSIG RMK QFE689/0918
Conditions at: UTDD (DUSHANBE , TJ) observed 1630 UTC 17 September 2021
Temperature: 23.0°C (73°F)
Dewpoint: 5.0°C (41°F) [RH = 31%]
Pressure (altimeter): 29.79 inches Hg (1009.0 mb)
Winds: variable direction winds at 2 MPH (2 knots; 1.0 m/s)
Visibility: 5 miles ( 8 km)
Ceiling: at least 12,000 feet AGL
Clouds: sky clear below 12,000 feet AGL
Weather: no significant weather observed at this time

METAR text: UTDD 171600Z 04002MPS 9000 NSC 25/05 Q1009 R09/D NOSIG RMK QFE689/0918
Conditions at: UTDD (DUSHANBE , TJ) observed 1600 UTC 17 September 2021
Temperature: 25.0°C (77°F)
Dewpoint: 5.0°C (41°F) [RH = 28%]
Pressure (altimeter): 29.79 inches Hg (1009.0 mb)
Winds: from the NE (40 degrees) at 5 MPH (4 knots; 2.1 m/s)
Visibility: 6 miles ( 9 km)
Ceiling: at least 12,000 feet AGL
Clouds: sky clear below 12,000 feet AGL
Weather: no significant weather observed at this time

METAR text: UTDD 171530Z VRB02MPS 9000 NSC 26/03 Q1008 R09/D NOSIG RMK QFE688/0918
Conditions at: UTDD (DUSHANBE , TJ) observed 1530 UTC 17 September 2021
Temperature: 26.0°C (79°F)
Dewpoint: 3.0°C (37°F) [RH = 23%]
Pressure (altimeter): 29.76 inches Hg (1008.0 mb)
Winds: variable direction winds at 5 MPH (4 knots; 2.1 m/s)
Visibility: 6 miles ( 9 km)
Ceiling: at least 12,000 feet AGL
Clouds: sky clear below 12,000 feet AGL
Weather: no significant weather observed at this time

METAR text: UTDD 171500Z 08002MPS 8000 NSC 26/04 Q1008 R09/D NOSIG RMK QFE688/0917
Conditions at: UTDD (DUSHANBE , TJ) observed 1500 UTC 17 September 2021
Temperature: 26.0°C (79°F)
Dewpoint: 4.0°C (39°F) [RH = 24%]
Pressure (altimeter): 29.76 inches Hg (1008.0 mb)
Winds: from the E (80 degrees) at 5 MPH (4 knots; 2.1 m/s)
Visibility: 5 miles ( 8 km)
Ceiling: at least 12,000 feet AGL
Clouds: sky clear below 12,000 feet AGL
Weather: no significant weather observed at this time

METAR text: UTDD 171430Z 00000MPS 9000 NSC 27/05 Q1007 R09/D NOSIG RMK QFE688/0917
Conditions at: UTDD (DUSHANBE , TJ) observed 1430 UTC 17 September 2021
Temperature: 27.0°C (81°F)
Dewpoint: 5.0°C (41°F) [RH = 24%]
Pressure (altimeter): 29.73 inches Hg (1007.0 mb)
Winds: calm
Visibility: 6 miles ( 9 km)
Ceiling: at least 12,000 feet AGL
Clouds: sky clear below 12,000 feet AGL
Weather: no significant weather observed at this time

METAR text: UTDD 171400Z VRB02MPS 8000 NSC 27/02 Q1007 R09/D NOSIG RMK QFE687/0917
Conditions at: UTDD (DUSHANBE , TJ) observed 1400 UTC 17 September 2021
Temperature: 27.0°C (81°F)
Dewpoint: 2.0°C (36°F) [RH = 20%]
Pressure (altimeter): 29.73 inches Hg (1007.0 mb)
Winds: variable direction winds at 5 MPH (4 knots; 2.1 m/s)
Visibility: 5 miles ( 8 km)
Ceiling: at least 12,000 feet AGL
Clouds: sky clear below 12,000 feet AGL
Weather: no significant weather observed at this time

METAR text: UTDD 171330Z 02001MPS 9999 NSC 30/04 Q1007 R09/D NOSIG RMK QFE687/0916
Conditions at: UTDD (DUSHANBE , TJ) observed 1330 UTC 17 September 2021
Temperature: 30.0°C (86°F)
Dewpoint: 4.0°C (39°F) [RH = 19%]
Pressure (altimeter): 29.73 inches Hg (1007.0 mb)
Winds: from the NNE (20 degrees) at 2 MPH (2 knots; 1.0 m/s)
Visibility: 6 or more miles (10+ km)
Ceiling: at least 12,000 feet AGL
Clouds: sky clear below 12,000 feet AGL
Weather: no significant weather observed at this time

METAR text: UTDD 171300Z 34002MPS 9999 NSC 33/00 Q1006 R09/D NOSIG RMK QFE687/0916
Conditions at: UTDD (DUSHANBE , TJ) observed 1300 UTC 17 September 2021
Temperature: 33.0°C (91°F)
Dewpoint: 0.0°C (32°F) [RH = 12%]
Pressure (altimeter): 29.70 inches Hg (1006.0 mb)
Winds: from the NNW (340 degrees) at 5 MPH (4 knots; 2.1 m/s)
Visibility: 6 or more miles (10+ km)
Ceiling: at least 12,000 feet AGL
Clouds: sky clear below 12,000 feet AGL
Weather: no significant weather observed at this time

METAR text: UTDD 171230Z 28003MPS 9999 NSC 34/M01 Q1006 R09/D NOSIG RMK QFE687/0916
Conditions at: UTDD (DUSHANBE , TJ) observed 1230 UTC 17 September 2021
Temperature: 34.0°C (93°F)
Dewpoint: -1.0°C (30°F) [RH = 11%]
Pressure (altimeter): 29.70 inches Hg (1006.0 mb)
Winds: from the W (280 degrees) at 7 MPH (6 knots; 3.1 m/s)
Visibility: 6 or more miles (10+ km)
Ceiling: at least 12,000 feet AGL
Clouds: sky clear below 12,000 feet AGL
Weather: no significant weather observed at this time

METAR text: UTDD 171200Z 00000MPS 9999 NSC 36/M01 Q1006 R09/D NOSIG RMK QFE687/0916
Conditions at: UTDD (DUSHANBE , TJ) observed 1200 UTC 17 September 2021
Temperature: 36.0°C (97°F)
Dewpoint: -1.0°C (30°F) [RH = 10%]
Pressure (altimeter): 29.70 inches Hg (1006.0 mb)
Winds: calm
Visibility: 6 or more miles (10+ km)
Ceiling: at least 12,000 feet AGL
Clouds: sky clear below 12,000 feet AGL
Weather: no significant weather observed at this time

METAR text: UTDD 171130Z VRB02MPS 9999 NSC 35/M02 Q1006 R09/D NOSIG RMK QFE687/0916
Conditions at: UTDD (DUSHANBE , TJ) observed 1130 UTC 17 September 2021
Temperature: 35.0°C (95°F)
Dewpoint: -2.0°C (28°F) [RH =  9%]
Pressure (altimeter): 29.70 inches Hg (1006.0 mb)
Winds: variable direction winds at 5 MPH (4 knots; 2.1 m/s)
Visibility: 6 or more miles (10+ km)
Ceiling: at least 12,000 feet AGL
Clouds: sky clear below 12,000 feet AGL
Weather: no significant weather observed at this time

METAR text: UTDD 171100Z VRB01MPS 9999 NSC 36/M02 Q1006 R09/D NOSIG RMK QFE687/0916
Conditions at: UTDD (DUSHANBE , TJ) observed 1100 UTC 17 September 2021
Temperature: 36.0°C (97°F)
Dewpoint: -2.0°C (28°F) [RH =  9%]
Pressure (altimeter): 29.70 inches Hg (1006.0 mb)
Winds: variable direction winds at 2 MPH (2 knots; 1.0 m/s)
Visibility: 6 or more miles (10+ km)
Ceiling: at least 12,000 feet AGL
Clouds: sky clear below 12,000 feet AGL
Weather: no significant weather observed at this time

METAR text: UTDD 171030Z VRB01MPS 9999 NSC 36/00 Q1007 R09/D NOSIG RMK QFE687/0916
Conditions at: UTDD (DUSHANBE , TJ) observed 1030 UTC 17 September 2021
Temperature: 36.0°C (97°F)
Dewpoint: 0.0°C (32°F) [RH = 10%]
Pressure (altimeter): 29.73 inches Hg (1007.0 mb)
Winds: variable direction winds at 2 MPH (2 knots; 1.0 m/s)
Visibility: 6 or more miles (10+ km)
Ceiling: at least 12,000 feet AGL
Clouds: sky clear below 12,000 feet AGL
Weather: no significant weather observed at this time

METAR text: UTDD 171000Z VRB01MPS 9999 NSC 36/M01 Q1007 R09/D NOSIG RMK QFE687/0917
Conditions at: UTDD (DUSHANBE , TJ) observed 1000 UTC 17 September 2021
Temperature: 36.0°C (97°F)
Dewpoint: -1.0°C (30°F) [RH = 10%]
Pressure (altimeter): 29.73 inches Hg (1007.0 mb)
Winds: variable direction winds at 2 MPH (2 knots; 1.0 m/s)
Visibility: 6 or more miles (10+ km)
Ceiling: at least 12,000 feet AGL
Clouds: sky clear below 12,000 feet AGL
Weather: no significant weather observed at this time

METAR text: UTDD 170930Z VRB02MPS 9999 NSC 36/M00 Q1007 R09/D NOSIG RMK QFE688/0917
Conditions at: UTDD (DUSHANBE , TJ) observed 0930 UTC 17 September 2021
Temperature: 36.0°C (97°F)
Dewpoint: 0.0°C (32°F) [RH = 10%]
Pressure (altimeter): 29.73 inches Hg (1007.0 mb)
Winds: variable direction winds at 5 MPH (4 knots; 2.1 m/s)
Visibility: 6 or more miles (10+ km)
Ceiling: at least 12,000 feet AGL
Clouds: sky clear below 12,000 feet AGL
Weather: no significant weather observed at this time

METAR text: UTDD 170900Z VRB02MPS 9999 NSC 35/M01 Q1008 R09/CLRD// NOSIG RMK QFE688/0917
Conditions at: UTDD (DUSHANBE , TJ) observed 0900 UTC 17 September 2021
Temperature: 35.0°C (95°F)
Dewpoint: -1.0°C (30°F) [RH = 10%]
Pressure (altimeter): 29.76 inches Hg (1008.0 mb)
Winds: variable direction winds at 5 MPH (4 knots; 2.1 m/s)
Visibility: 6 or more miles (10+ km)
Ceiling: at least 12,000 feet AGL
Clouds: sky clear below 12,000 feet AGL
Weather: no significant weather observed at this time

METAR text: UTDD 170830Z VRB03MPS 9999 NSC 35/M01 Q1008 R09/CLRD// NOSIG RMK QFE688/0918
Conditions at: UTDD (DUSHANBE , TJ) observed 0830 UTC 17 September 2021
Temperature: 35.0°C (95°F)
Dewpoint: -1.0°C (30°F) [RH = 10%]
Pressure (altimeter): 29.76 inches Hg (1008.0 mb)
Winds: variable direction winds at 7 MPH (6 knots; 3.1 m/s)
Visibility: 6 or more miles (10+ km)
Ceiling: at least 12,000 feet AGL
Clouds: sky clear below 12,000 feet AGL
Weather: no significant weather observed at this time

METAR text: UTDD 170800Z VRB02MPS 9999 NSC 35/01 Q1008 R09/D NOSIG RMK QFE688/0918
Conditions at: UTDD (DUSHANBE , TJ) observed 0800 UTC 17 September 2021
Temperature: 35.0°C (95°F)
Dewpoint: 1.0°C (34°F) [RH = 12%]
Pressure (altimeter): 29.76 inches Hg (1008.0 mb)
Winds: variable direction winds at 5 MPH (4 knots; 2.1 m/s)
Visibility: 6 or more miles (10+ km)
Ceiling: at least 12,000 feet AGL
Clouds: sky clear below 12,000 feet AGL
Weather: no significant weather observed at this time

METAR text: UTDD 170730Z VRB02MPS 9999 NSC 34/04 Q1009 R09/CLRD// NOSIG RMK QFE689/0918
Conditions at: UTDD (DUSHANBE , TJ) observed 0730 UTC 17 September 2021
Temperature: 34.0°C (93°F)
Dewpoint: 4.0°C (39°F) [RH = 15%]
Pressure (altimeter): 29.79 inches Hg (1009.0 mb)
Winds: variable direction winds at 5 MPH (4 knots; 2.1 m/s)
Visibility: 6 or more miles (10+ km)
Ceiling: at least 12,000 feet AGL
Clouds: sky clear below 12,000 feet AGL
Weather: no significant weather observed at this time

METAR text: UTDD 170700Z VRB02MPS 9999 NSC 33/06 Q1009 R09/CLRD// NOSIG RMK QFE689/0919
Conditions at: UTDD (DUSHANBE , TJ) observed 0700 UTC 17 September 2021
Temperature: 33.0°C (91°F)
Dewpoint: 6.0°C (43°F) [RH = 19%]
Pressure (altimeter): 29.79 inches Hg (1009.0 mb)
Winds: variable direction winds at 5 MPH (4 knots; 2.1 m/s)
Visibility: 6 or more miles (10+ km)
Ceiling: at least 12,000 feet AGL
Clouds: sky clear below 12,000 feet AGL
Weather: no significant weather observed at this time

METAR text: UTDD 170630Z VRB02MPS 9000 NSC 32/07 Q1010 R09/D NOSIG RMK QFE689/0919
Conditions at: UTDD (DUSHANBE , TJ) observed 0630 UTC 17 September 2021
Temperature: 32.0°C (90°F)
Dewpoint: 7.0°C (45°F) [RH = 21%]
Pressure (altimeter): 29.82 inches Hg (1010.0 mb)
Winds: variable direction winds at 5 MPH (4 knots; 2.1 m/s)
Visibility: 6 miles ( 9 km)
Ceiling: at least 12,000 feet AGL
Clouds: sky clear below 12,000 feet AGL
Weather: no significant weather observed at this time

METAR text: UTDD 170600Z VRB02MPS 8000 NSC 30/08 Q1010 R09/D NOSIG RMK QFE689/0919
Conditions at: UTDD (DUSHANBE , TJ) observed 0600 UTC 17 September 2021
Temperature: 30.0°C (86°F)
Dewpoint: 8.0°C (46°F) [RH = 25%]
Pressure (altimeter): 29.82 inches Hg (1010.0 mb)
Winds: variable direction winds at 5 MPH (4 knots; 2.1 m/s)
Visibility: 5 miles ( 8 km)
Ceiling: at least 12,000 feet AGL
Clouds: sky clear below 12,000 feet AGL
Weather: no significant weather observed at this time

METAR text: UTDD 170530Z VRB02MPS 8000 NSC 29/08 Q1010 R09/D NOSIG RMK QFE690/0920
Conditions at: UTDD (DUSHANBE , TJ) observed 0530 UTC 17 September 2021
Temperature: 29.0°C (84°F)
Dewpoint: 8.0°C (46°F) [RH = 27%]
Pressure (altimeter): 29.82 inches Hg (1010.0 mb)
Winds: variable direction winds at 5 MPH (4 knots; 2.1 m/s)
Visibility: 5 miles ( 8 km)
Ceiling: at least 12,000 feet AGL
Clouds: sky clear below 12,000 feet AGL
Weather: no significant weather observed at this time

METAR text: UTDD 170500Z VRB02MPS 8000 NSC 27/08 Q1011 R09/D NOSIG RMK QFE690/0920
Conditions at: UTDD (DUSHANBE , TJ) observed 0500 UTC 17 September 2021
Temperature: 27.0°C (81°F)
Dewpoint: 8.0°C (46°F) [RH = 30%]
Pressure (altimeter): 29.85 inches Hg (1011.0 mb)
Winds: variable direction winds at 5 MPH (4 knots; 2.1 m/s)
Visibility: 5 miles ( 8 km)
Ceiling: at least 12,000 feet AGL
Clouds: sky clear below 12,000 feet AGL
Weather: no significant weather observed at this time

METAR text: UTDD 170430Z VRB01MPS 7000 NSC 26/07 Q1011 R09/D NOSIG RMK QFE690/0920
Conditions at: UTDD (DUSHANBE , TJ) observed 0430 UTC 17 September 2021
Temperature: 26.0°C (79°F)
Dewpoint: 7.0°C (45°F) [RH = 30%]
Pressure (altimeter): 29.85 inches Hg (1011.0 mb)
Winds: variable direction winds at 2 MPH (2 knots; 1.0 m/s)
Visibility: 4 miles ( 7 km)
Ceiling: at least 12,000 feet AGL
Clouds: sky clear below 12,000 feet AGL
Weather: no significant weather observed at this time

METAR text: UTDD 170400Z VRB02MPS 8000 NSC 24/07 Q1011 R09/D NOSIG RMK QFE690/0920
Conditions at: UTDD (DUSHANBE , TJ) observed 0400 UTC 17 September 2021
Temperature: 24.0°C (75°F)
Dewpoint: 7.0°C (45°F) [RH = 34%]
Pressure (altimeter): 29.85 inches Hg (1011.0 mb)
Winds: variable direction winds at 5 MPH (4 knots; 2.1 m/s)
Visibility: 5 miles ( 8 km)
Ceiling: at least 12,000 feet AGL
Clouds: sky clear below 12,000 feet AGL
Weather: no significant weather observed at this time

METAR text: UTDD 170330Z VRB01MPS 6000 NSC 23/06 Q1011 R09/D NOSIG RMK QFE690/0920
Conditions at: UTDD (DUSHANBE , TJ) observed 0330 UTC 17 September 2021
Temperature: 23.0°C (73°F)
Dewpoint: 6.0°C (43°F) [RH = 33%]
Pressure (altimeter): 29.85 inches Hg (1011.0 mb)
Winds: variable direction winds at 2 MPH (2 knots; 1.0 m/s)
Visibility: 4 miles ( 6 km)
Ceiling: at least 12,000 feet AGL
Clouds: sky clear below 12,000 feet AGL
Weather: no significant weather observed at this time

METAR text: UTDD 170300Z 00000MPS 6000 NSC 20/06 Q1011 R09/D NOSIG RMK QFE690/0920
Conditions at: UTDD (DUSHANBE , TJ) observed 0300 UTC 17 September 2021
Temperature: 20.0°C (68°F)
Dewpoint: 6.0°C (43°F) [RH = 40%]
Pressure (altimeter): 29.85 inches Hg (1011.0 mb)
Winds: calm
Visibility: 4 miles ( 6 km)
Ceiling: at least 12,000 feet AGL
Clouds: sky clear below 12,000 feet AGL
Weather: no significant weather observed at this time

METAR text: UTDD 170230Z VRB01MPS 6000 NSC 19/08 Q1011 R09/D NOSIG RMK QFE690/0920
Conditions at: UTDD (DUSHANBE , TJ) observed 0230 UTC 17 September 2021
Temperature: 19.0°C (66°F)
Dewpoint: 8.0°C (46°F) [RH = 49%]
Pressure (altimeter): 29.85 inches Hg (1011.0 mb)
Winds: variable direction winds at 2 MPH (2 knots; 1.0 m/s)
Visibility: 4 miles ( 6 km)
Ceiling: at least 12,000 feet AGL
Clouds: sky clear below 12,000 feet AGL
Weather: no significant weather observed at this time

METAR text: UTDD 170200Z VRB01MPS 9999 NSC 16/06 Q1011 R09/D NOSIG RMK QFE690/0920
Conditions at: UTDD (DUSHANBE , TJ) observed 0200 UTC 17 September 2021
Temperature: 16.0°C (61°F)
Dewpoint: 6.0°C (43°F) [RH = 51%]
Pressure (altimeter): 29.85 inches Hg (1011.0 mb)
Winds: variable direction winds at 2 MPH (2 knots; 1.0 m/s)
Visibility: 6 or more miles (10+ km)
Ceiling: at least 12,000 feet AGL
Clouds: sky clear below 12,000 feet AGL
Weather: no significant weather observed at this time

METAR text: UTDD 170130Z VRB01MPS 9000 NSC 16/05 Q1011 R09/D NOSIG RMK QFE690/0920
Conditions at: UTDD (DUSHANBE , TJ) observed 0130 UTC 17 September 2021
Temperature: 16.0°C (61°F)
Dewpoint: 5.0°C (41°F) [RH = 48%]
Pressure (altimeter): 29.85 inches Hg (1011.0 mb)
Winds: variable direction winds at 2 MPH (2 knots; 1.0 m/s)
Visibility: 6 miles ( 9 km)
Ceiling: at least 12,000 feet AGL
Clouds: sky clear below 12,000 feet AGL
Weather: no significant weather observed at this time

METAR text: UTDD 170100Z VRB01MPS 9999 NSC 17/05 Q1011 R09/D NOSIG RMK QFE690/0920
Conditions at: UTDD (DUSHANBE , TJ) observed 0100 UTC 17 September 2021
Temperature: 17.0°C (63°F)
Dewpoint: 5.0°C (41°F) [RH = 45%]
Pressure (altimeter): 29.85 inches Hg (1011.0 mb)
Winds: variable direction winds at 2 MPH (2 knots; 1.0 m/s)
Visibility: 6 or more miles (10+ km)
Ceiling: at least 12,000 feet AGL
Clouds: sky clear below 12,000 feet AGL
Weather: no significant weather observed at this time

METAR text: UTDD 170030Z 00000MPS 9999 NSC 16/05 Q1011 R09/D NOSIG RMK QFE690/0920
Conditions at: UTDD (DUSHANBE , TJ) observed 0030 UTC 17 September 2021
Temperature: 16.0°C (61°F)
Dewpoint: 5.0°C (41°F) [RH = 48%]
Pressure (altimeter): 29.85 inches Hg (1011.0 mb)
Winds: calm
Visibility: 6 or more miles (10+ km)
Ceiling: at least 12,000 feet AGL
Clouds: sky clear below 12,000 feet AGL
Weather: no significant weather observed at this time

METAR text: UTDD 170000Z 00000MPS 9999 NSC 16/06 Q1011 R09/D NOSIG RMK QFE690/0920
Conditions at: UTDD (DUSHANBE , TJ) observed 0000 UTC 17 September 2021
Temperature: 16.0°C (61°F)
Dewpoint: 6.0°C (43°F) [RH = 51%]
Pressure (altimeter): 29.85 inches Hg (1011.0 mb)
Winds: calm
Visibility: 6 or more miles (10+ km)
Ceiling: at least 12,000 feet AGL
Clouds: sky clear below 12,000 feet AGL
Weather: no significant weather observed at this time

METAR text: UTDD 162330Z 00000MPS 9999 NSC 18/05 Q1011 R09/D NOSIG RMK QFE690/0920
Conditions at: UTDD (DUSHANBE , TJ) observed 2330 UTC 16 September 2021
Temperature: 18.0°C (64°F)
Dewpoint: 5.0°C (41°F) [RH = 42%]
Pressure (altimeter): 29.85 inches Hg (1011.0 mb)
Winds: calm
Visibility: 6 or more miles (10+ km)
Ceiling: at least 12,000 feet AGL
Clouds: sky clear below 12,000 feet AGL
Weather: no significant weather observed at this time

METAR text: UTDD 162300Z 10001MPS 9999 NSC 19/04 Q1011 R09/D NOSIG RMK QFE690/0920
Conditions at: UTDD (DUSHANBE , TJ) observed 2300 UTC 16 September 2021
Temperature: 19.0°C (66°F)
Dewpoint: 4.0°C (39°F) [RH = 37%]
Pressure (altimeter): 29.85 inches Hg (1011.0 mb)
Winds: from the E (100 degrees) at 2 MPH (2 knots; 1.0 m/s)
Visibility: 6 or more miles (10+ km)
Ceiling: at least 12,000 feet AGL
Clouds: sky clear below 12,000 feet AGL
Weather: no significant weather observed at this time

METAR text: UTDD 162230Z 06001MPS 9999 NSC 19/05 Q1011 R09/D NOSIG RMK QFE690/0920
Conditions at: UTDD (DUSHANBE , TJ) observed 2230 UTC 16 September 2021
Temperature: 19.0°C (66°F)
Dewpoint: 5.0°C (41°F) [RH = 40%]
Pressure (altimeter): 29.85 inches Hg (1011.0 mb)
Winds: from the ENE (60 degrees) at 2 MPH (2 knots; 1.0 m/s)
Visibility: 6 or more miles (10+ km)
Ceiling: at least 12,000 feet AGL
Clouds: sky clear below 12,000 feet AGL
Weather: no significant weather observed at this time

METAR text: UTDD 162200Z VRB01MPS 9999 NSC 18/05 Q1011 R09/D NOSIG RMK QFE690/0920
Conditions at: UTDD (DUSHANBE , TJ) observed 2200 UTC 16 September 2021
Temperature: 18.0°C (64°F)
Dewpoint: 5.0°C (41°F) [RH = 42%]
Pressure (altimeter): 29.85 inches Hg (1011.0 mb)
Winds: variable direction winds at 2 MPH (2 knots; 1.0 m/s)
Visibility: 6 or more miles (10+ km)
Ceiling: at least 12,000 feet AGL
Clouds: sky clear below 12,000 feet AGL
Weather: no significant weather observed at this time

METAR text: UTDD 162130Z VRB01MPS 9999 NSC 20/06 Q1011 R09/D NOSIG RMK QFE690/0920
Conditions at: UTDD (DUSHANBE , TJ) observed 2130 UTC 16 September 2021
Temperature: 20.0°C (68°F)
Dewpoint: 6.0°C (43°F) [RH = 40%]
Pressure (altimeter): 29.85 inches Hg (1011.0 mb)
Winds: variable direction winds at 2 MPH (2 knots; 1.0 m/s)
Visibility: 6 or more miles (10+ km)
Ceiling: at least 12,000 feet AGL
Clouds: sky clear below 12,000 feet AGL
Weather: no significant weather observed at this time

METAR text: UTDD 162100Z VRB01MPS 9999 NSC 20/06 Q1011 R09/D NOSIG RMK QFE690/0920
Conditions at: UTDD (DUSHANBE , TJ) observed 2100 UTC 16 September 2021
Temperature: 20.0°C (68°F)
Dewpoint: 6.0°C (43°F) [RH = 40%]
Pressure (altimeter): 29.85 inches Hg (1011.0 mb)
Winds: variable direction winds at 2 MPH (2 knots; 1.0 m/s)
Visibility: 6 or more miles (10+ km)
Ceiling: at least 12,000 feet AGL
Clouds: sky clear below 12,000 feet AGL
Weather: no significant weather observed at this time

METAR text: UTDD 162030Z VRB01MPS 9999 NSC 19/06 Q1011 R09/D NOSIG RMK QFE690/0920
Conditions at: UTDD (DUSHANBE , TJ) observed 2030 UTC 16 September 2021
Temperature: 19.0°C (66°F)
Dewpoint: 6.0°C (43°F) [RH = 43%]
Pressure (altimeter): 29.85 inches Hg (1011.0 mb)
Winds: variable direction winds at 2 MPH (2 knots; 1.0 m/s)
Visibility: 6 or more miles (10+ km)
Ceiling: at least 12,000 feet AGL
Clouds: sky clear below 12,000 feet AGL
Weather: no significant weather observed at this time

Forecast for: UTDD (DUSHANBE , TJ)
Text: TAF UTDD 180600Z 1807/1819 VRB02MPS 9999 NSC
Forecast period: 0700 to 1900 UTC 18 September 2021
Forecast type: FROM: standard forecast or significant change
Winds: variable direction winds at 5 MPH (4 knots; 2.1 m/s)
Visibility: 6 or more miles (10+ km)
Ceiling: unknown
Clouds: missing
Weather: no significant weather forecast for this period
Text: TEMPO 1809/1814 26006MPS
Forecast period: 0900 to 1400 UTC 18 September 2021
Forecast type: TEMPORARY: The following changes expected for less than half the time period
Winds: from the W (260 degrees) at 14 MPH (12 knots; 6.2 m/s)
Visibility: missing
Ceiling: unknown
Clouds: missing
Weather: no significant weather forecast for this period